<?xml version="1.0" encoding="UTF-8" standalone="no" ?>
<gpx xmlns="http://www.topografix.com/GPX/1/1" xmlns:xsi="http://www.w3.org/2001/XMLSchema-instance" xsi:schemaLocation="http://www.topografix.com/GPX/1/1 http://www.topografix.com/GPX/1/1/gpx.xsd" version="1.1" creator="VisuGPX - https://www.visugpx.com">
  <metadata>
    <name>Col des Tomples complété du tour de Tête grosse</name>
    <desc><![CDATA[1ère traces de la sortie du 2/11/2021, complété de l'tinéraire contournant Tête Grosse par le nord, empruntant la crète des Mèlézes et le chemin de Chabanon au col du Fanget]]></desc>
  </metadata>
  <trk>
    <name><![CDATA[Col des Tomples complété du tour de Tête grosse_3]]></name>
    <trkseg>
      <trkpt lat="44.33075" lon="6.3042">
        <ele>1680.3</ele>
        <time>2021-11-02T16:38:50Z</time>
      </trkpt>
      <trkpt lat="44.33058" lon="6.30446">
        <ele>1680</ele>
        <time>2021-11-02T16:38:57Z</time>
      </trkpt>
      <trkpt lat="44.33038" lon="6.30469">
        <ele>1680.6</ele>
        <time>2021-11-02T16:39:02Z</time>
      </trkpt>
      <trkpt lat="44.33022" lon="6.30487">
        <ele>1682</ele>
        <time>2021-11-02T16:39:07Z</time>
      </trkpt>
      <trkpt lat="44.33004" lon="6.30506">
        <ele>1682.5</ele>
        <time>2021-11-02T16:39:13Z</time>
      </trkpt>
      <trkpt lat="44.32981" lon="6.30526">
        <ele>1683.6</ele>
        <time>2021-11-02T16:39:19Z</time>
      </trkpt>
      <trkpt lat="44.32958" lon="6.30545">
        <ele>1682.1</ele>
        <time>2021-11-02T16:39:24Z</time>
      </trkpt>
      <trkpt lat="44.32935" lon="6.30563">
        <ele>1682.2</ele>
        <time>2021-11-02T16:39:29Z</time>
      </trkpt>
      <trkpt lat="44.3291" lon="6.30592">
        <ele>1682.3</ele>
        <time>2021-11-02T16:39:35Z</time>
      </trkpt>
      <trkpt lat="44.32891" lon="6.30614">
        <ele>1682.5</ele>
        <time>2021-11-02T16:39:40Z</time>
      </trkpt>
      <trkpt lat="44.32872" lon="6.30641">
        <ele>1683.8</ele>
        <time>2021-11-02T16:39:46Z</time>
      </trkpt>
      <trkpt lat="44.32854" lon="6.30662">
        <ele>1685.1</ele>
        <time>2021-11-02T16:39:51Z</time>
      </trkpt>
      <trkpt lat="44.32833" lon="6.30681">
        <ele>1686</ele>
        <time>2021-11-02T16:39:57Z</time>
      </trkpt>
      <trkpt lat="44.32809" lon="6.30701">
        <ele>1684.5</ele>
        <time>2021-11-02T16:40:03Z</time>
      </trkpt>
      <trkpt lat="44.3279" lon="6.30728">
        <ele>1682.6</ele>
        <time>2021-11-02T16:40:08Z</time>
      </trkpt>
      <trkpt lat="44.32774" lon="6.30775">
        <ele>1680.1</ele>
        <time>2021-11-02T16:40:14Z</time>
      </trkpt>
      <trkpt lat="44.3276" lon="6.30814">
        <ele>1676.8</ele>
        <time>2021-11-02T16:40:19Z</time>
      </trkpt>
      <trkpt lat="44.32733" lon="6.30843">
        <ele>1675.3</ele>
        <time>2021-11-02T16:40:24Z</time>
      </trkpt>
      <trkpt lat="44.327" lon="6.30867">
        <ele>1673.8</ele>
        <time>2021-11-02T16:40:31Z</time>
      </trkpt>
      <trkpt lat="44.32672" lon="6.30897">
        <ele>1671.7</ele>
        <time>2021-11-02T16:40:37Z</time>
      </trkpt>
      <trkpt lat="44.32659" lon="6.30935">
        <ele>1671.8</ele>
        <time>2021-11-02T16:40:42Z</time>
      </trkpt>
      <trkpt lat="44.32642" lon="6.30983">
        <ele>1671.6</ele>
        <time>2021-11-02T16:40:48Z</time>
      </trkpt>
      <trkpt lat="44.32623" lon="6.31034">
        <ele>1668.6</ele>
        <time>2021-11-02T16:40:54Z</time>
      </trkpt>
      <trkpt lat="44.32603" lon="6.31079">
        <ele>1662.9</ele>
        <time>2021-11-02T16:41:00Z</time>
      </trkpt>
      <trkpt lat="44.32575" lon="6.31115">
        <ele>1659.2</ele>
        <time>2021-11-02T16:41:05Z</time>
      </trkpt>
      <trkpt lat="44.32549" lon="6.31149">
        <ele>1657.9</ele>
        <time>2021-11-02T16:41:10Z</time>
      </trkpt>
      <trkpt lat="44.32522" lon="6.31182">
        <ele>1655.4</ele>
        <time>2021-11-02T16:41:16Z</time>
      </trkpt>
      <trkpt lat="44.32539" lon="6.31193">
        <ele>1653.6</ele>
        <time>2021-11-02T16:41:21Z</time>
      </trkpt>
      <trkpt lat="44.32572" lon="6.31166">
        <ele>1651.1</ele>
        <time>2021-11-02T16:41:27Z</time>
      </trkpt>
      <trkpt lat="44.32587" lon="6.31168">
        <ele>1648.5</ele>
        <time>2021-11-02T16:41:33Z</time>
      </trkpt>
      <trkpt lat="44.32573" lon="6.31207">
        <ele>1643.2</ele>
        <time>2021-11-02T16:41:38Z</time>
      </trkpt>
      <trkpt lat="44.32555" lon="6.31259">
        <ele>1638.7</ele>
        <time>2021-11-02T16:41:44Z</time>
      </trkpt>
      <trkpt lat="44.32547" lon="6.3131">
        <ele>1634.3</ele>
        <time>2021-11-02T16:41:49Z</time>
      </trkpt>
      <trkpt lat="44.32528" lon="6.31363">
        <ele>1628</ele>
        <time>2021-11-02T16:41:55Z</time>
      </trkpt>
      <trkpt lat="44.325" lon="6.31406">
        <ele>1623.7</ele>
        <time>2021-11-02T16:42:01Z</time>
      </trkpt>
      <trkpt lat="44.32499" lon="6.31454">
        <ele>1621.3</ele>
        <time>2021-11-02T16:42:06Z</time>
      </trkpt>
      <trkpt lat="44.32515" lon="6.31504">
        <ele>1620</ele>
        <time>2021-11-02T16:42:12Z</time>
      </trkpt>
      <trkpt lat="44.32541" lon="6.31516">
        <ele>1617.8</ele>
        <time>2021-11-02T16:42:17Z</time>
      </trkpt>
      <trkpt lat="44.32536" lon="6.31548">
        <ele>1615.3</ele>
        <time>2021-11-02T16:42:23Z</time>
      </trkpt>
      <trkpt lat="44.32511" lon="6.31586">
        <ele>1612.4</ele>
        <time>2021-11-02T16:42:29Z</time>
      </trkpt>
      <trkpt lat="44.32485" lon="6.31626">
        <ele>1607.2</ele>
        <time>2021-11-02T16:42:35Z</time>
      </trkpt>
      <trkpt lat="44.32462" lon="6.31661">
        <ele>1605.5</ele>
        <time>2021-11-02T16:42:41Z</time>
      </trkpt>
      <trkpt lat="44.32463" lon="6.31706">
        <ele>1600.5</ele>
        <time>2021-11-02T16:42:47Z</time>
      </trkpt>
      <trkpt lat="44.32442" lon="6.3174">
        <ele>1596.5</ele>
        <time>2021-11-02T16:42:52Z</time>
      </trkpt>
      <trkpt lat="44.32419" lon="6.31772">
        <ele>1591.3</ele>
        <time>2021-11-02T16:42:58Z</time>
      </trkpt>
      <trkpt lat="44.32412" lon="6.31815">
        <ele>1587.2</ele>
        <time>2021-11-02T16:43:04Z</time>
      </trkpt>
      <trkpt lat="44.3243" lon="6.31831">
        <ele>1585.4</ele>
        <time>2021-11-02T16:43:09Z</time>
      </trkpt>
      <trkpt lat="44.32458" lon="6.31829">
        <ele>1582.7</ele>
        <time>2021-11-02T16:43:14Z</time>
      </trkpt>
      <trkpt lat="44.32492" lon="6.31813">
        <ele>1577.3</ele>
        <time>2021-11-02T16:43:20Z</time>
      </trkpt>
      <trkpt lat="44.32527" lon="6.31812">
        <ele>1575.4</ele>
        <time>2021-11-02T16:43:26Z</time>
      </trkpt>
      <trkpt lat="44.32558" lon="6.31823">
        <ele>1573.2</ele>
        <time>2021-11-02T16:43:31Z</time>
      </trkpt>
      <trkpt lat="44.32594" lon="6.31817">
        <ele>1570.7</ele>
        <time>2021-11-02T16:43:36Z</time>
      </trkpt>
      <trkpt lat="44.32636" lon="6.31794">
        <ele>1566.1</ele>
        <time>2021-11-02T16:43:42Z</time>
      </trkpt>
      <trkpt lat="44.32673" lon="6.31787">
        <ele>1562.9</ele>
        <time>2021-11-02T16:43:48Z</time>
      </trkpt>
      <trkpt lat="44.32715" lon="6.31764">
        <ele>1563.3</ele>
        <time>2021-11-02T16:43:54Z</time>
      </trkpt>
      <trkpt lat="44.3275" lon="6.31739">
        <ele>1559.1</ele>
        <time>2021-11-02T16:43:59Z</time>
      </trkpt>
      <trkpt lat="44.32781" lon="6.31714">
        <ele>1556.7</ele>
        <time>2021-11-02T16:44:04Z</time>
      </trkpt>
      <trkpt lat="44.32803" lon="6.31665">
        <ele>1554.8</ele>
        <time>2021-11-02T16:44:10Z</time>
      </trkpt>
      <trkpt lat="44.32813" lon="6.31633">
        <ele>1551.8</ele>
        <time>2021-11-02T16:44:15Z</time>
      </trkpt>
      <trkpt lat="44.32825" lon="6.31669">
        <ele>1546.6</ele>
        <time>2021-11-02T16:44:21Z</time>
      </trkpt>
      <trkpt lat="44.32824" lon="6.31715">
        <ele>1539.1</ele>
        <time>2021-11-02T16:44:27Z</time>
      </trkpt>
      <trkpt lat="44.32824" lon="6.31756">
        <ele>1535</ele>
        <time>2021-11-02T16:44:32Z</time>
      </trkpt>
      <trkpt lat="44.32816" lon="6.31813">
        <ele>1530.8</ele>
        <time>2021-11-02T16:44:38Z</time>
      </trkpt>
      <trkpt lat="44.32797" lon="6.31862">
        <ele>1528.1</ele>
        <time>2021-11-02T16:44:44Z</time>
      </trkpt>
      <trkpt lat="44.32768" lon="6.3189">
        <ele>1526.1</ele>
        <time>2021-11-02T16:44:50Z</time>
      </trkpt>
      <trkpt lat="44.32737" lon="6.31918">
        <ele>1521.9</ele>
        <time>2021-11-02T16:44:56Z</time>
      </trkpt>
      <trkpt lat="44.32714" lon="6.31951">
        <ele>1518.8</ele>
        <time>2021-11-02T16:45:02Z</time>
      </trkpt>
      <trkpt lat="44.32736" lon="6.31985">
        <ele>1517.6</ele>
        <time>2021-11-02T16:45:08Z</time>
      </trkpt>
      <trkpt lat="44.32772" lon="6.31992">
        <ele>1515.6</ele>
        <time>2021-11-02T16:45:14Z</time>
      </trkpt>
      <trkpt lat="44.32805" lon="6.32013">
        <ele>1514.3</ele>
        <time>2021-11-02T16:45:20Z</time>
      </trkpt>
      <trkpt lat="44.32792" lon="6.3204">
        <ele>1512.5</ele>
        <time>2021-11-02T16:45:25Z</time>
      </trkpt>
      <trkpt lat="44.32769" lon="6.32074">
        <ele>1513</ele>
        <time>2021-11-02T16:45:31Z</time>
      </trkpt>
      <trkpt lat="44.32751" lon="6.32094">
        <ele>1512</ele>
        <time>2021-11-02T16:45:36Z</time>
      </trkpt>
      <trkpt lat="44.32721" lon="6.32131">
        <ele>1510.5</ele>
        <time>2021-11-02T16:45:42Z</time>
      </trkpt>
      <trkpt lat="44.32691" lon="6.32166">
        <ele>1507.4</ele>
        <time>2021-11-02T16:45:48Z</time>
      </trkpt>
      <trkpt lat="44.32672" lon="6.32197">
        <ele>1504.1</ele>
        <time>2021-11-02T16:45:53Z</time>
      </trkpt>
      <trkpt lat="44.32648" lon="6.32227">
        <ele>1504.4</ele>
        <time>2021-11-02T16:45:58Z</time>
      </trkpt>
      <trkpt lat="44.32628" lon="6.32276">
        <ele>1504.4</ele>
        <time>2021-11-02T16:46:04Z</time>
      </trkpt>
      <trkpt lat="44.32623" lon="6.32334">
        <ele>1502.8</ele>
        <time>2021-11-02T16:46:10Z</time>
      </trkpt>
      <trkpt lat="44.3261" lon="6.32389">
        <ele>1500.1</ele>
        <time>2021-11-02T16:46:16Z</time>
      </trkpt>
      <trkpt lat="44.32588" lon="6.3244">
        <ele>1497.7</ele>
        <time>2021-11-02T16:46:22Z</time>
      </trkpt>
      <trkpt lat="44.3256" lon="6.32486">
        <ele>1495.5</ele>
        <time>2021-11-02T16:46:28Z</time>
      </trkpt>
      <trkpt lat="44.32543" lon="6.32519">
        <ele>1490.8</ele>
        <time>2021-11-02T16:46:34Z</time>
      </trkpt>
      <trkpt lat="44.32543" lon="6.32545">
        <ele>1489.4</ele>
        <time>2021-11-02T16:46:40Z</time>
      </trkpt>
      <trkpt lat="44.32545" lon="6.32569">
        <ele>1486.1</ele>
        <time>2021-11-02T16:46:46Z</time>
      </trkpt>
      <trkpt lat="44.32544" lon="6.32597">
        <ele>1485.4</ele>
        <time>2021-11-02T16:46:51Z</time>
      </trkpt>
      <trkpt lat="44.32529" lon="6.32635">
        <ele>1480.8</ele>
        <time>2021-11-02T16:46:57Z</time>
      </trkpt>
      <trkpt lat="44.32547" lon="6.3266">
        <ele>1477.5</ele>
        <time>2021-11-02T16:47:02Z</time>
      </trkpt>
      <trkpt lat="44.32567" lon="6.32705">
        <ele>1473.2</ele>
        <time>2021-11-02T16:47:08Z</time>
      </trkpt>
      <trkpt lat="44.32569" lon="6.3274">
        <ele>1470.3</ele>
        <time>2021-11-02T16:47:13Z</time>
      </trkpt>
      <trkpt lat="44.32536" lon="6.3276">
        <ele>1463.1</ele>
        <time>2021-11-02T16:47:19Z</time>
      </trkpt>
      <trkpt lat="44.32512" lon="6.32789">
        <ele>1458.7</ele>
        <time>2021-11-02T16:47:25Z</time>
      </trkpt>
      <trkpt lat="44.3252" lon="6.32802">
        <ele>1456.7</ele>
        <time>2021-11-02T16:47:30Z</time>
      </trkpt>
      <trkpt lat="44.32549" lon="6.32791">
        <ele>1455.7</ele>
        <time>2021-11-02T16:47:36Z</time>
      </trkpt>
      <trkpt lat="44.32576" lon="6.32787">
        <ele>1457.7</ele>
        <time>2021-11-02T16:47:41Z</time>
      </trkpt>
      <trkpt lat="44.32608" lon="6.32778">
        <ele>1457.4</ele>
        <time>2021-11-02T16:47:47Z</time>
      </trkpt>
      <trkpt lat="44.32639" lon="6.32783">
        <ele>1457</ele>
        <time>2021-11-02T16:47:52Z</time>
      </trkpt>
      <trkpt lat="44.32675" lon="6.32795">
        <ele>1458.3</ele>
        <time>2021-11-02T16:47:58Z</time>
      </trkpt>
      <trkpt lat="44.32705" lon="6.3281">
        <ele>1458.7</ele>
        <time>2021-11-02T16:48:04Z</time>
      </trkpt>
      <trkpt lat="44.32733" lon="6.3277">
        <ele>1454.9</ele>
        <time>2021-11-02T16:48:10Z</time>
      </trkpt>
      <trkpt lat="44.32769" lon="6.32741">
        <ele>1453.3</ele>
        <time>2021-11-02T16:48:15Z</time>
      </trkpt>
      <trkpt lat="44.32805" lon="6.32733">
        <ele>1454.2</ele>
        <time>2021-11-02T16:48:21Z</time>
      </trkpt>
      <trkpt lat="44.32837" lon="6.32721">
        <ele>1453.8</ele>
        <time>2021-11-02T16:48:27Z</time>
      </trkpt>
      <trkpt lat="44.32852" lon="6.3272">
        <ele>1449</ele>
        <time>2021-11-02T16:48:33Z</time>
      </trkpt>
      <trkpt lat="44.32851" lon="6.32719">
        <ele>1449.8</ele>
        <time>2021-11-02T16:48:39Z</time>
      </trkpt>
      <trkpt lat="44.32851" lon="6.3272">
        <ele>1449.2</ele>
        <time>2021-11-02T16:48:45Z</time>
      </trkpt>
      <trkpt lat="44.32851" lon="6.3272">
        <ele>1449.2</ele>
        <time>2021-11-02T16:48:50Z</time>
      </trkpt>
      <trkpt lat="44.32851" lon="6.3272">
        <ele>1449.2</ele>
        <time>2021-11-02T16:48:56Z</time>
      </trkpt>
      <trkpt lat="44.32851" lon="6.3272">
        <ele>1449.2</ele>
        <time>2021-11-02T16:49:02Z</time>
      </trkpt>
      <trkpt lat="44.32851" lon="6.3272">
        <ele>1449.2</ele>
        <time>2021-11-02T16:49:08Z</time>
      </trkpt>
      <trkpt lat="44.32851" lon="6.3272">
        <ele>1449.1</ele>
        <time>2021-11-02T16:49:14Z</time>
      </trkpt>
      <trkpt lat="44.32851" lon="6.3272">
        <ele>1449.1</ele>
        <time>2021-11-02T16:49:20Z</time>
      </trkpt>
      <trkpt lat="44.32851" lon="6.3272">
        <ele>1449.2</ele>
        <time>2021-11-02T16:49:26Z</time>
      </trkpt>
      <trkpt lat="44.32851" lon="6.3272">
        <ele>1449.2</ele>
        <time>2021-11-02T16:49:31Z</time>
      </trkpt>
      <trkpt lat="44.32851" lon="6.3272">
        <ele>1449.2</ele>
        <time>2021-11-02T16:49:36Z</time>
      </trkpt>
      <trkpt lat="44.32851" lon="6.3272">
        <ele>1449.2</ele>
        <time>2021-11-02T16:49:42Z</time>
      </trkpt>
      <trkpt lat="44.32851" lon="6.3272">
        <ele>1449.2</ele>
        <time>2021-11-02T16:49:47Z</time>
      </trkpt>
      <trkpt lat="44.32851" lon="6.3272">
        <ele>1449.2</ele>
        <time>2021-11-02T16:49:52Z</time>
      </trkpt>
      <trkpt lat="44.32851" lon="6.3272">
        <ele>1449.3</ele>
        <time>2021-11-02T16:49:58Z</time>
      </trkpt>
      <trkpt lat="44.32851" lon="6.3272">
        <ele>1449.3</ele>
        <time>2021-11-02T16:50:04Z</time>
      </trkpt>
      <trkpt lat="44.32851" lon="6.3272">
        <ele>1449.3</ele>
        <time>2021-11-02T16:50:09Z</time>
      </trkpt>
      <trkpt lat="44.32851" lon="6.3272">
        <ele>1449.3</ele>
        <time>2021-11-02T16:50:15Z</time>
      </trkpt>
      <trkpt lat="44.32851" lon="6.3272">
        <ele>1449.3</ele>
        <time>2021-11-02T16:50:20Z</time>
      </trkpt>
      <trkpt lat="44.32851" lon="6.3272">
        <ele>1449.3</ele>
        <time>2021-11-02T16:50:26Z</time>
      </trkpt>
      <trkpt lat="44.32851" lon="6.3272">
        <ele>1449.4</ele>
        <time>2021-11-02T16:50:31Z</time>
      </trkpt>
      <trkpt lat="44.32851" lon="6.3272">
        <ele>1449.4</ele>
        <time>2021-11-02T16:50:36Z</time>
      </trkpt>
      <trkpt lat="44.32851" lon="6.3272">
        <ele>1449.6</ele>
        <time>2021-11-02T16:50:41Z</time>
      </trkpt>
      <trkpt lat="44.32851" lon="6.3272">
        <ele>1449.6</ele>
        <time>2021-11-02T16:50:47Z</time>
      </trkpt>
      <trkpt lat="44.32851" lon="6.3272">
        <ele>1449.7</ele>
        <time>2021-11-02T16:50:53Z</time>
      </trkpt>
      <trkpt lat="44.32851" lon="6.3272">
        <ele>1449.7</ele>
        <time>2021-11-02T16:50:58Z</time>
      </trkpt>
      <trkpt lat="44.32851" lon="6.3272">
        <ele>1449.7</ele>
        <time>2021-11-02T16:51:03Z</time>
      </trkpt>
      <trkpt lat="44.32851" lon="6.3272">
        <ele>1449.7</ele>
        <time>2021-11-02T16:51:09Z</time>
      </trkpt>
      <trkpt lat="44.32851" lon="6.3272">
        <ele>1449.8</ele>
        <time>2021-11-02T16:51:15Z</time>
      </trkpt>
      <trkpt lat="44.32851" lon="6.3272">
        <ele>1449.8</ele>
        <time>2021-11-02T16:51:21Z</time>
      </trkpt>
      <trkpt lat="44.32851" lon="6.3272">
        <ele>1449.8</ele>
        <time>2021-11-02T16:51:26Z</time>
      </trkpt>
      <trkpt lat="44.32851" lon="6.3272">
        <ele>1449.8</ele>
        <time>2021-11-02T16:51:32Z</time>
      </trkpt>
      <trkpt lat="44.32851" lon="6.3272">
        <ele>1449.8</ele>
        <time>2021-11-02T16:51:37Z</time>
      </trkpt>
      <trkpt lat="44.32851" lon="6.3272">
        <ele>1449.8</ele>
        <time>2021-11-02T16:51:42Z</time>
      </trkpt>
      <trkpt lat="44.32851" lon="6.3272">
        <ele>1449.8</ele>
        <time>2021-11-02T16:51:48Z</time>
      </trkpt>
      <trkpt lat="44.32851" lon="6.3272">
        <ele>1449.9</ele>
        <time>2021-11-02T16:51:53Z</time>
      </trkpt>
      <trkpt lat="44.32851" lon="6.32722">
        <ele>1449.3</ele>
        <time>2021-11-02T16:51:59Z</time>
      </trkpt>
      <trkpt lat="44.32858" lon="6.32735">
        <ele>1449.9</ele>
        <time>2021-11-02T16:52:05Z</time>
      </trkpt>
      <trkpt lat="44.32863" lon="6.32743">
        <ele>1448.3</ele>
        <time>2021-11-02T16:52:11Z</time>
      </trkpt>
      <trkpt lat="44.32863" lon="6.32742">
        <ele>1448.1</ele>
        <time>2021-11-02T16:52:16Z</time>
      </trkpt>
      <trkpt lat="44.32863" lon="6.32741">
        <ele>1448.2</ele>
        <time>2021-11-02T16:52:21Z</time>
      </trkpt>
      <trkpt lat="44.32863" lon="6.32741">
        <ele>1448.3</ele>
        <time>2021-11-02T16:52:27Z</time>
      </trkpt>
      <trkpt lat="44.32863" lon="6.32741">
        <ele>1448.3</ele>
        <time>2021-11-02T16:52:32Z</time>
      </trkpt>
      <trkpt lat="44.32863" lon="6.32741">
        <ele>1448.3</ele>
        <time>2021-11-02T16:52:38Z</time>
      </trkpt>
      <trkpt lat="44.32863" lon="6.32741">
        <ele>1447.8</ele>
        <time>2021-11-02T16:52:43Z</time>
      </trkpt>
      <trkpt lat="44.32863" lon="6.32741">
        <ele>1446.5</ele>
        <time>2021-11-02T16:52:49Z</time>
      </trkpt>
      <trkpt lat="44.32863" lon="6.32741">
        <ele>1446.1</ele>
        <time>2021-11-02T16:52:55Z</time>
      </trkpt>
      <trkpt lat="44.32863" lon="6.32741">
        <ele>1446.5</ele>
        <time>2021-11-02T16:53:01Z</time>
      </trkpt>
      <trkpt lat="44.32863" lon="6.32741">
        <ele>1446.5</ele>
        <time>2021-11-02T16:53:07Z</time>
      </trkpt>
      <trkpt lat="44.32863" lon="6.32741">
        <ele>1446.5</ele>
        <time>2021-11-02T16:53:13Z</time>
      </trkpt>
      <trkpt lat="44.32864" lon="6.32743">
        <ele>1447</ele>
        <time>2021-11-02T16:53:19Z</time>
      </trkpt>
      <trkpt lat="44.32866" lon="6.32746">
        <ele>1447.8</ele>
        <time>2021-11-02T16:53:24Z</time>
      </trkpt>
      <trkpt lat="44.32866" lon="6.32746">
        <ele>1448</ele>
        <time>2021-11-02T16:53:30Z</time>
      </trkpt>
      <trkpt lat="44.32866" lon="6.32746">
        <ele>1447.8</ele>
        <time>2021-11-02T16:53:35Z</time>
      </trkpt>
      <trkpt lat="44.32867" lon="6.32746">
        <ele>1447.8</ele>
        <time>2021-11-02T16:53:41Z</time>
      </trkpt>
      <trkpt lat="44.32876" lon="6.32758">
        <ele>1445.7</ele>
        <time>2021-11-02T16:53:46Z</time>
      </trkpt>
      <trkpt lat="44.32897" lon="6.32791">
        <ele>1443.7</ele>
        <time>2021-11-02T16:53:52Z</time>
      </trkpt>
      <trkpt lat="44.32935" lon="6.32796">
        <ele>1444.2</ele>
        <time>2021-11-02T16:53:58Z</time>
      </trkpt>
      <trkpt lat="44.32961" lon="6.32829">
        <ele>1442.2</ele>
        <time>2021-11-02T16:54:03Z</time>
      </trkpt>
      <trkpt lat="44.32993" lon="6.32868">
        <ele>1443.3</ele>
        <time>2021-11-02T16:54:09Z</time>
      </trkpt>
      <trkpt lat="44.3301" lon="6.32911">
        <ele>1441.4</ele>
        <time>2021-11-02T16:54:14Z</time>
      </trkpt>
      <trkpt lat="44.32996" lon="6.32979">
        <ele>1439.9</ele>
        <time>2021-11-02T16:54:20Z</time>
      </trkpt>
      <trkpt lat="44.3301" lon="6.33043">
        <ele>1436.6</ele>
        <time>2021-11-02T16:54:26Z</time>
      </trkpt>
      <trkpt lat="44.33028" lon="6.33095">
        <ele>1435.6</ele>
        <time>2021-11-02T16:54:31Z</time>
      </trkpt>
      <trkpt lat="44.33044" lon="6.33155">
        <ele>1432.2</ele>
        <time>2021-11-02T16:54:36Z</time>
      </trkpt>
      <trkpt lat="44.33052" lon="6.33233">
        <ele>1426.2</ele>
        <time>2021-11-02T16:54:42Z</time>
      </trkpt>
      <trkpt lat="44.33069" lon="6.33278">
        <ele>1419.9</ele>
        <time>2021-11-02T16:54:48Z</time>
      </trkpt>
      <trkpt lat="44.3309" lon="6.33225">
        <ele>1417.6</ele>
        <time>2021-11-02T16:54:54Z</time>
      </trkpt>
      <trkpt lat="44.33135" lon="6.3318">
        <ele>1412.9</ele>
        <time>2021-11-02T16:55:00Z</time>
      </trkpt>
      <trkpt lat="44.33179" lon="6.33142">
        <ele>1406.6</ele>
        <time>2021-11-02T16:55:06Z</time>
      </trkpt>
      <trkpt lat="44.33216" lon="6.33185">
        <ele>1402.3</ele>
        <time>2021-11-02T16:55:11Z</time>
      </trkpt>
      <trkpt lat="44.33244" lon="6.33251">
        <ele>1396.2</ele>
        <time>2021-11-02T16:55:16Z</time>
      </trkpt>
      <trkpt lat="44.33221" lon="6.33321">
        <ele>1390.1</ele>
        <time>2021-11-02T16:55:22Z</time>
      </trkpt>
      <trkpt lat="44.33222" lon="6.33388">
        <ele>1385.2</ele>
        <time>2021-11-02T16:55:27Z</time>
      </trkpt>
      <trkpt lat="44.33237" lon="6.33457">
        <ele>1381.6</ele>
        <time>2021-11-02T16:55:33Z</time>
      </trkpt>
      <trkpt lat="44.33197" lon="6.33486">
        <ele>1380.2</ele>
        <time>2021-11-02T16:55:38Z</time>
      </trkpt>
      <trkpt lat="44.33211" lon="6.3352">
        <ele>1376.7</ele>
        <time>2021-11-02T16:55:44Z</time>
      </trkpt>
      <trkpt lat="44.33269" lon="6.33528">
        <ele>1363.5</ele>
        <time>2021-11-02T16:55:50Z</time>
      </trkpt>
      <trkpt lat="44.33312" lon="6.3359">
        <ele>1354.5</ele>
        <time>2021-11-02T16:55:56Z</time>
      </trkpt>
      <trkpt lat="44.33343" lon="6.3368">
        <ele>1350.7</ele>
        <time>2021-11-02T16:56:02Z</time>
      </trkpt>
      <trkpt lat="44.33361" lon="6.33752">
        <ele>1343.5</ele>
        <time>2021-11-02T16:56:08Z</time>
      </trkpt>
      <trkpt lat="44.33372" lon="6.33812">
        <ele>1335.2</ele>
        <time>2021-11-02T16:56:14Z</time>
      </trkpt>
      <trkpt lat="44.33356" lon="6.33877">
        <ele>1328.2</ele>
        <time>2021-11-02T16:56:19Z</time>
      </trkpt>
      <trkpt lat="44.33368" lon="6.33957">
        <ele>1323.8</ele>
        <time>2021-11-02T16:56:24Z</time>
      </trkpt>
      <trkpt lat="44.33367" lon="6.34038">
        <ele>1315.4</ele>
        <time>2021-11-02T16:56:29Z</time>
      </trkpt>
      <trkpt lat="44.33355" lon="6.34125">
        <ele>1307.5</ele>
        <time>2021-11-02T16:56:35Z</time>
      </trkpt>
      <trkpt lat="44.33365" lon="6.34154">
        <ele>1305.4</ele>
        <time>2021-11-02T16:56:40Z</time>
      </trkpt>
      <trkpt lat="44.33398" lon="6.34109">
        <ele>1299.9</ele>
        <time>2021-11-02T16:56:46Z</time>
      </trkpt>
      <trkpt lat="44.33443" lon="6.34057">
        <ele>1290.7</ele>
        <time>2021-11-02T16:56:52Z</time>
      </trkpt>
      <trkpt lat="44.33455" lon="6.34104">
        <ele>1284</ele>
        <time>2021-11-02T16:56:58Z</time>
      </trkpt>
      <trkpt lat="44.33437" lon="6.34166">
        <ele>1279.7</ele>
        <time>2021-11-02T16:57:03Z</time>
      </trkpt>
      <trkpt lat="44.33425" lon="6.34223">
        <ele>1274.8</ele>
        <time>2021-11-02T16:57:08Z</time>
      </trkpt>
      <trkpt lat="44.33415" lon="6.34292">
        <ele>1266.5</ele>
        <time>2021-11-02T16:57:14Z</time>
      </trkpt>
      <trkpt lat="44.33383" lon="6.34341">
        <ele>1258.3</ele>
        <time>2021-11-02T16:57:19Z</time>
      </trkpt>
      <trkpt lat="44.33342" lon="6.34403">
        <ele>1256.9</ele>
        <time>2021-11-02T16:57:25Z</time>
      </trkpt>
      <trkpt lat="44.33315" lon="6.34482">
        <ele>1254.4</ele>
        <time>2021-11-02T16:57:31Z</time>
      </trkpt>
      <trkpt lat="44.33292" lon="6.34538">
        <ele>1250.7</ele>
        <time>2021-11-02T16:57:37Z</time>
      </trkpt>
      <trkpt lat="44.33271" lon="6.3458">
        <ele>1246</ele>
        <time>2021-11-02T16:57:42Z</time>
      </trkpt>
      <trkpt lat="44.33256" lon="6.3463">
        <ele>1245.5</ele>
        <time>2021-11-02T16:57:47Z</time>
      </trkpt>
      <trkpt lat="44.33229" lon="6.3468">
        <ele>1241.5</ele>
        <time>2021-11-02T16:57:53Z</time>
      </trkpt>
      <trkpt lat="44.33263" lon="6.34669">
        <ele>1236.9</ele>
        <time>2021-11-02T16:57:59Z</time>
      </trkpt>
      <trkpt lat="44.333" lon="6.3462">
        <ele>1231.1</ele>
        <time>2021-11-02T16:58:05Z</time>
      </trkpt>
      <trkpt lat="44.33334" lon="6.34595">
        <ele>1229.3</ele>
        <time>2021-11-02T16:58:10Z</time>
      </trkpt>
      <trkpt lat="44.33376" lon="6.3456">
        <ele>1225.8</ele>
        <time>2021-11-02T16:58:15Z</time>
      </trkpt>
      <trkpt lat="44.33428" lon="6.34521">
        <ele>1220.5</ele>
        <time>2021-11-02T16:58:21Z</time>
      </trkpt>
      <trkpt lat="44.33471" lon="6.34463">
        <ele>1218.4</ele>
        <time>2021-11-02T16:58:27Z</time>
      </trkpt>
      <trkpt lat="44.33488" lon="6.3446">
        <ele>1212.5</ele>
        <time>2021-11-02T16:58:33Z</time>
      </trkpt>
      <trkpt lat="44.3347" lon="6.34502">
        <ele>1206.4</ele>
        <time>2021-11-02T16:58:39Z</time>
      </trkpt>
      <trkpt lat="44.33452" lon="6.34577">
        <ele>1214.4</ele>
        <time>2021-11-02T16:58:45Z</time>
      </trkpt>
      <trkpt lat="44.33428" lon="6.34661">
        <ele>1196.9</ele>
        <time>2021-11-02T16:58:51Z</time>
      </trkpt>
      <trkpt lat="44.33401" lon="6.34728">
        <ele>1192</ele>
        <time>2021-11-02T16:58:56Z</time>
      </trkpt>
      <trkpt lat="44.33367" lon="6.34782">
        <ele>1187.8</ele>
        <time>2021-11-02T16:59:01Z</time>
      </trkpt>
      <trkpt lat="44.33323" lon="6.34836">
        <ele>1181.8</ele>
        <time>2021-11-02T16:59:07Z</time>
      </trkpt>
      <trkpt lat="44.33287" lon="6.34868">
        <ele>1180.1</ele>
        <time>2021-11-02T16:59:12Z</time>
      </trkpt>
      <trkpt lat="44.33249" lon="6.34896">
        <ele>1180.2</ele>
        <time>2021-11-02T16:59:18Z</time>
      </trkpt>
      <trkpt lat="44.33221" lon="6.3492">
        <ele>1179.2</ele>
        <time>2021-11-02T16:59:23Z</time>
      </trkpt>
      <trkpt lat="44.33196" lon="6.34951">
        <ele>1178.7</ele>
        <time>2021-11-02T16:59:28Z</time>
      </trkpt>
      <trkpt lat="44.3318" lon="6.34987">
        <ele>1178.9</ele>
        <time>2021-11-02T16:59:33Z</time>
      </trkpt>
      <trkpt lat="44.33169" lon="6.35038">
        <ele>1178.7</ele>
        <time>2021-11-02T16:59:39Z</time>
      </trkpt>
      <trkpt lat="44.33161" lon="6.35085">
        <ele>1176</ele>
        <time>2021-11-02T16:59:44Z</time>
      </trkpt>
      <trkpt lat="44.33199" lon="6.35123">
        <ele>1169.5</ele>
        <time>2021-11-02T16:59:50Z</time>
      </trkpt>
      <trkpt lat="44.33257" lon="6.35137">
        <ele>1164.9</ele>
        <time>2021-11-02T16:59:56Z</time>
      </trkpt>
      <trkpt lat="44.33322" lon="6.35142">
        <ele>1160.5</ele>
        <time>2021-11-02T17:00:02Z</time>
      </trkpt>
      <trkpt lat="44.33373" lon="6.35157">
        <ele>1158.1</ele>
        <time>2021-11-02T17:00:07Z</time>
      </trkpt>
      <trkpt lat="44.33427" lon="6.35173">
        <ele>1159</ele>
        <time>2021-11-02T17:00:13Z</time>
      </trkpt>
      <trkpt lat="44.3347" lon="6.3518">
        <ele>1157.1</ele>
        <time>2021-11-02T17:00:18Z</time>
      </trkpt>
      <trkpt lat="44.33521" lon="6.35183">
        <ele>1154.4</ele>
        <time>2021-11-02T17:00:24Z</time>
      </trkpt>
      <trkpt lat="44.33549" lon="6.35236">
        <ele>1152.5</ele>
        <time>2021-11-02T17:00:29Z</time>
      </trkpt>
      <trkpt lat="44.33578" lon="6.35297">
        <ele>1151.7</ele>
        <time>2021-11-02T17:00:35Z</time>
      </trkpt>
      <trkpt lat="44.33607" lon="6.35347">
        <ele>1152.1</ele>
        <time>2021-11-02T17:00:41Z</time>
      </trkpt>
      <trkpt lat="44.33627" lon="6.35378">
        <ele>1153.3</ele>
        <time>2021-11-02T17:00:46Z</time>
      </trkpt>
      <trkpt lat="44.33654" lon="6.35419">
        <ele>1152.1</ele>
        <time>2021-11-02T17:00:52Z</time>
      </trkpt>
      <trkpt lat="44.33681" lon="6.3545">
        <ele>1151.5</ele>
        <time>2021-11-02T17:00:57Z</time>
      </trkpt>
      <trkpt lat="44.33722" lon="6.35473">
        <ele>1151.5</ele>
        <time>2021-11-02T17:01:03Z</time>
      </trkpt>
      <trkpt lat="44.33761" lon="6.35496">
        <ele>1151.2</ele>
        <time>2021-11-02T17:01:09Z</time>
      </trkpt>
      <trkpt lat="44.33792" lon="6.35531">
        <ele>1148.7</ele>
        <time>2021-11-02T17:01:15Z</time>
      </trkpt>
      <trkpt lat="44.33817" lon="6.35561">
        <ele>1146</ele>
        <time>2021-11-02T17:01:20Z</time>
      </trkpt>
      <trkpt lat="44.33847" lon="6.35592">
        <ele>1148.6</ele>
        <time>2021-11-02T17:01:26Z</time>
      </trkpt>
      <trkpt lat="44.33875" lon="6.35625">
        <ele>1148.6</ele>
        <time>2021-11-02T17:01:32Z</time>
      </trkpt>
      <trkpt lat="44.33904" lon="6.35656">
        <ele>1148.3</ele>
        <time>2021-11-02T17:01:38Z</time>
      </trkpt>
      <trkpt lat="44.33937" lon="6.3568">
        <ele>1148.4</ele>
        <time>2021-11-02T17:01:44Z</time>
      </trkpt>
      <trkpt lat="44.33965" lon="6.35698">
        <ele>1148.2</ele>
        <time>2021-11-02T17:01:49Z</time>
      </trkpt>
      <trkpt lat="44.33999" lon="6.35723">
        <ele>1149.3</ele>
        <time>2021-11-02T17:01:55Z</time>
      </trkpt>
      <trkpt lat="44.34032" lon="6.35748">
        <ele>1148.7</ele>
        <time>2021-11-02T17:02:01Z</time>
      </trkpt>
      <trkpt lat="44.3406" lon="6.35765">
        <ele>1149</ele>
        <time>2021-11-02T17:02:06Z</time>
      </trkpt>
      <trkpt lat="44.34087" lon="6.35781">
        <ele>1148.5</ele>
        <time>2021-11-02T17:02:11Z</time>
      </trkpt>
      <trkpt lat="44.3412" lon="6.35798">
        <ele>1146.3</ele>
        <time>2021-11-02T17:02:17Z</time>
      </trkpt>
      <trkpt lat="44.34154" lon="6.35816">
        <ele>1147.5</ele>
        <time>2021-11-02T17:02:23Z</time>
      </trkpt>
      <trkpt lat="44.34186" lon="6.35834">
        <ele>1147.3</ele>
        <time>2021-11-02T17:02:29Z</time>
      </trkpt>
      <trkpt lat="44.3422" lon="6.35849">
        <ele>1148.8</ele>
        <time>2021-11-02T17:02:35Z</time>
      </trkpt>
      <trkpt lat="44.34248" lon="6.35845">
        <ele>1149.6</ele>
        <time>2021-11-02T17:02:40Z</time>
      </trkpt>
      <trkpt lat="44.34276" lon="6.35839">
        <ele>1150.9</ele>
        <time>2021-11-02T17:02:45Z</time>
      </trkpt>
      <trkpt lat="44.34306" lon="6.35837">
        <ele>1150</ele>
        <time>2021-11-02T17:02:50Z</time>
      </trkpt>
      <trkpt lat="44.34341" lon="6.35847">
        <ele>1152.4</ele>
        <time>2021-11-02T17:02:56Z</time>
      </trkpt>
      <trkpt lat="44.34369" lon="6.3586">
        <ele>1152.2</ele>
        <time>2021-11-02T17:03:01Z</time>
      </trkpt>
      <trkpt lat="44.34402" lon="6.35879">
        <ele>1152.3</ele>
        <time>2021-11-02T17:03:07Z</time>
      </trkpt>
      <trkpt lat="44.34433" lon="6.35896">
        <ele>1154.1</ele>
        <time>2021-11-02T17:03:13Z</time>
      </trkpt>
      <trkpt lat="44.34472" lon="6.35897">
        <ele>1150.7</ele>
        <time>2021-11-02T17:03:19Z</time>
      </trkpt>
      <trkpt lat="44.34507" lon="6.35893">
        <ele>1152.1</ele>
        <time>2021-11-02T17:03:24Z</time>
      </trkpt>
      <trkpt lat="44.34548" lon="6.35887">
        <ele>1154.3</ele>
        <time>2021-11-02T17:03:30Z</time>
      </trkpt>
      <trkpt lat="44.34586" lon="6.35886">
        <ele>1153.8</ele>
        <time>2021-11-02T17:03:36Z</time>
      </trkpt>
      <trkpt lat="44.34614" lon="6.35891">
        <ele>1153.8</ele>
        <time>2021-11-02T17:03:41Z</time>
      </trkpt>
      <trkpt lat="44.34645" lon="6.35904">
        <ele>1152.9</ele>
        <time>2021-11-02T17:03:47Z</time>
      </trkpt>
      <trkpt lat="44.34672" lon="6.35917">
        <ele>1152.2</ele>
        <time>2021-11-02T17:03:52Z</time>
      </trkpt>
      <trkpt lat="44.34704" lon="6.35931">
        <ele>1154</ele>
        <time>2021-11-02T17:03:58Z</time>
      </trkpt>
      <trkpt lat="44.34731" lon="6.35932">
        <ele>1152.3</ele>
        <time>2021-11-02T17:04:03Z</time>
      </trkpt>
      <trkpt lat="44.34758" lon="6.35927">
        <ele>1151.8</ele>
        <time>2021-11-02T17:04:08Z</time>
      </trkpt>
      <trkpt lat="44.34791" lon="6.35915">
        <ele>1155.3</ele>
        <time>2021-11-02T17:04:14Z</time>
      </trkpt>
      <trkpt lat="44.34824" lon="6.35915">
        <ele>1156.5</ele>
        <time>2021-11-02T17:04:20Z</time>
      </trkpt>
      <trkpt lat="44.34831" lon="6.3594">
        <ele>1157.9</ele>
        <time>2021-11-02T17:04:26Z</time>
      </trkpt>
      <trkpt lat="44.34828" lon="6.35976">
        <ele>1159</ele>
        <time>2021-11-02T17:04:31Z</time>
      </trkpt>
      <trkpt lat="44.34826" lon="6.36012">
        <ele>1159.1</ele>
        <time>2021-11-02T17:04:36Z</time>
      </trkpt>
      <trkpt lat="44.34803" lon="6.36055">
        <ele>1158.7</ele>
        <time>2021-11-02T17:04:42Z</time>
      </trkpt>
      <trkpt lat="44.34774" lon="6.36086">
        <ele>1158.1</ele>
        <time>2021-11-02T17:04:47Z</time>
      </trkpt>
      <trkpt lat="44.34746" lon="6.36119">
        <ele>1157.4</ele>
        <time>2021-11-02T17:04:52Z</time>
      </trkpt>
      <trkpt lat="44.34718" lon="6.36154">
        <ele>1157.1</ele>
        <time>2021-11-02T17:04:58Z</time>
      </trkpt>
      <trkpt lat="44.34697" lon="6.36186">
        <ele>1157.3</ele>
        <time>2021-11-02T17:05:03Z</time>
      </trkpt>
      <trkpt lat="44.34671" lon="6.36217">
        <ele>1157.1</ele>
        <time>2021-11-02T17:05:09Z</time>
      </trkpt>
      <trkpt lat="44.34648" lon="6.36247">
        <ele>1158.3</ele>
        <time>2021-11-02T17:05:15Z</time>
      </trkpt>
      <trkpt lat="44.34622" lon="6.36282">
        <ele>1158.9</ele>
        <time>2021-11-02T17:05:21Z</time>
      </trkpt>
      <trkpt lat="44.34599" lon="6.36318">
        <ele>1157.3</ele>
        <time>2021-11-02T17:05:27Z</time>
      </trkpt>
      <trkpt lat="44.34573" lon="6.36353">
        <ele>1158.9</ele>
        <time>2021-11-02T17:05:33Z</time>
      </trkpt>
      <trkpt lat="44.3455" lon="6.36382">
        <ele>1161.1</ele>
        <time>2021-11-02T17:05:38Z</time>
      </trkpt>
      <trkpt lat="44.3453" lon="6.36411">
        <ele>1161</ele>
        <time>2021-11-02T17:05:43Z</time>
      </trkpt>
      <trkpt lat="44.34508" lon="6.3645">
        <ele>1162.8</ele>
        <time>2021-11-02T17:05:49Z</time>
      </trkpt>
      <trkpt lat="44.34491" lon="6.36486">
        <ele>1163.9</ele>
        <time>2021-11-02T17:05:54Z</time>
      </trkpt>
      <trkpt lat="44.3447" lon="6.36528">
        <ele>1164.4</ele>
        <time>2021-11-02T17:06:00Z</time>
      </trkpt>
      <trkpt lat="44.34451" lon="6.36567">
        <ele>1164.4</ele>
        <time>2021-11-02T17:06:06Z</time>
      </trkpt>
      <trkpt lat="44.34431" lon="6.36611">
        <ele>1167</ele>
        <time>2021-11-02T17:06:12Z</time>
      </trkpt>
      <trkpt lat="44.34415" lon="6.36645">
        <ele>1168.9</ele>
        <time>2021-11-02T17:06:17Z</time>
      </trkpt>
      <trkpt lat="44.34395" lon="6.36686">
        <ele>1169</ele>
        <time>2021-11-02T17:06:23Z</time>
      </trkpt>
      <trkpt lat="44.3438" lon="6.36718">
        <ele>1169.3</ele>
        <time>2021-11-02T17:06:28Z</time>
      </trkpt>
      <trkpt lat="44.3436" lon="6.36758">
        <ele>1170.4</ele>
        <time>2021-11-02T17:06:34Z</time>
      </trkpt>
      <trkpt lat="44.34344" lon="6.36791">
        <ele>1171.1</ele>
        <time>2021-11-02T17:06:39Z</time>
      </trkpt>
      <trkpt lat="44.34329" lon="6.36824">
        <ele>1171.4</ele>
        <time>2021-11-02T17:06:44Z</time>
      </trkpt>
      <trkpt lat="44.3431" lon="6.36864">
        <ele>1171.7</ele>
        <time>2021-11-02T17:06:50Z</time>
      </trkpt>
      <trkpt lat="44.34292" lon="6.36903">
        <ele>1173.5</ele>
        <time>2021-11-02T17:06:56Z</time>
      </trkpt>
      <trkpt lat="44.34277" lon="6.36935">
        <ele>1174.7</ele>
        <time>2021-11-02T17:07:01Z</time>
      </trkpt>
      <trkpt lat="44.34258" lon="6.36974">
        <ele>1176.3</ele>
        <time>2021-11-02T17:07:07Z</time>
      </trkpt>
      <trkpt lat="44.3424" lon="6.37011">
        <ele>1178.7</ele>
        <time>2021-11-02T17:07:13Z</time>
      </trkpt>
      <trkpt lat="44.34218" lon="6.37051">
        <ele>1179.4</ele>
        <time>2021-11-02T17:07:19Z</time>
      </trkpt>
      <trkpt lat="44.34203" lon="6.37086">
        <ele>1181.3</ele>
        <time>2021-11-02T17:07:24Z</time>
      </trkpt>
      <trkpt lat="44.34184" lon="6.3713">
        <ele>1180.7</ele>
        <time>2021-11-02T17:07:30Z</time>
      </trkpt>
      <trkpt lat="44.34164" lon="6.37171">
        <ele>1181.2</ele>
        <time>2021-11-02T17:07:36Z</time>
      </trkpt>
      <trkpt lat="44.34144" lon="6.3721">
        <ele>1181.7</ele>
        <time>2021-11-02T17:07:42Z</time>
      </trkpt>
      <trkpt lat="44.3413" lon="6.37256">
        <ele>1185.3</ele>
        <time>2021-11-02T17:07:48Z</time>
      </trkpt>
      <trkpt lat="44.34126" lon="6.37298">
        <ele>1186.9</ele>
        <time>2021-11-02T17:07:53Z</time>
      </trkpt>
      <trkpt lat="44.34124" lon="6.37346">
        <ele>1186.7</ele>
        <time>2021-11-02T17:07:59Z</time>
      </trkpt>
      <trkpt lat="44.34118" lon="6.37393">
        <ele>1189.2</ele>
        <time>2021-11-02T17:08:05Z</time>
      </trkpt>
      <trkpt lat="44.34114" lon="6.3744">
        <ele>1190.3</ele>
        <time>2021-11-02T17:08:11Z</time>
      </trkpt>
      <trkpt lat="44.34113" lon="6.3748">
        <ele>1192.6</ele>
        <time>2021-11-02T17:08:16Z</time>
      </trkpt>
      <trkpt lat="44.3411" lon="6.37526">
        <ele>1191.9</ele>
        <time>2021-11-02T17:08:22Z</time>
      </trkpt>
      <trkpt lat="44.34105" lon="6.37572">
        <ele>1194.7</ele>
        <time>2021-11-02T17:08:28Z</time>
      </trkpt>
      <trkpt lat="44.34092" lon="6.37619">
        <ele>1197.3</ele>
        <time>2021-11-02T17:08:34Z</time>
      </trkpt>
      <trkpt lat="44.34082" lon="6.37658">
        <ele>1198.4</ele>
        <time>2021-11-02T17:08:39Z</time>
      </trkpt>
      <trkpt lat="44.34069" lon="6.37701">
        <ele>1203.3</ele>
        <time>2021-11-02T17:08:45Z</time>
      </trkpt>
      <trkpt lat="44.34057" lon="6.37745">
        <ele>1206.6</ele>
        <time>2021-11-02T17:08:51Z</time>
      </trkpt>
      <trkpt lat="44.34047" lon="6.3779">
        <ele>1209.1</ele>
        <time>2021-11-02T17:08:57Z</time>
      </trkpt>
      <trkpt lat="44.34034" lon="6.37833">
        <ele>1208.8</ele>
        <time>2021-11-02T17:09:03Z</time>
      </trkpt>
      <trkpt lat="44.34023" lon="6.37869">
        <ele>1208.8</ele>
        <time>2021-11-02T17:09:08Z</time>
      </trkpt>
      <trkpt lat="44.34013" lon="6.37915">
        <ele>1214</ele>
        <time>2021-11-02T17:09:14Z</time>
      </trkpt>
      <trkpt lat="44.34003" lon="6.37949">
        <ele>1216.6</ele>
        <time>2021-11-02T17:09:19Z</time>
      </trkpt>
      <trkpt lat="44.33996" lon="6.37983">
        <ele>1217.2</ele>
        <time>2021-11-02T17:09:24Z</time>
      </trkpt>
      <trkpt lat="44.34" lon="6.38015">
        <ele>1218.4</ele>
        <time>2021-11-02T17:09:29Z</time>
      </trkpt>
      <trkpt lat="44.34003" lon="6.38037">
        <ele>1219.4</ele>
        <time>2021-11-02T17:09:35Z</time>
      </trkpt>
      <trkpt lat="44.34005" lon="6.38041">
        <ele>1215.4</ele>
        <time>2021-11-02T17:09:40Z</time>
      </trkpt>
      <trkpt lat="44.3404" lon="6.38035">
        <ele>1215.2</ele>
        <time>2021-11-02T17:09:46Z</time>
      </trkpt>
      <trkpt lat="44.34081" lon="6.38023">
        <ele>1212.5</ele>
        <time>2021-11-02T17:09:52Z</time>
      </trkpt>
      <trkpt lat="44.34114" lon="6.38011">
        <ele>1210.6</ele>
        <time>2021-11-02T17:09:57Z</time>
      </trkpt>
      <trkpt lat="44.34144" lon="6.37995">
        <ele>1210.9</ele>
        <time>2021-11-02T17:10:02Z</time>
      </trkpt>
      <trkpt lat="44.34174" lon="6.37987">
        <ele>1210.8</ele>
        <time>2021-11-02T17:10:08Z</time>
      </trkpt>
      <trkpt lat="44.34188" lon="6.38004">
        <ele>1210.5</ele>
        <time>2021-11-02T17:10:13Z</time>
      </trkpt>
      <trkpt lat="44.34209" lon="6.38016">
        <ele>1212.1</ele>
        <time>2021-11-02T17:10:19Z</time>
      </trkpt>
      <trkpt lat="44.34223" lon="6.38039">
        <ele>1219.6</ele>
        <time>2021-11-02T17:10:25Z</time>
      </trkpt>
      <trkpt lat="44.34224" lon="6.38062">
        <ele>1218.1</ele>
        <time>2021-11-02T17:10:30Z</time>
      </trkpt>
      <trkpt lat="44.34239" lon="6.38076">
        <ele>1218.4</ele>
        <time>2021-11-02T17:10:36Z</time>
      </trkpt>
      <trkpt lat="44.34239" lon="6.38092">
        <ele>1220.5</ele>
        <time>2021-11-02T17:10:42Z</time>
      </trkpt>
      <trkpt lat="44.3424" lon="6.38101">
        <ele>1221.7</ele>
        <time>2021-11-02T17:10:48Z</time>
      </trkpt>
      <trkpt lat="44.34238" lon="6.38107">
        <ele>1225.9</ele>
      </trkpt>
    </trkseg>
  </trk>
</gpx>